createdAt,value
2019-02-17T00:01:37.725Z,13.80
2019-02-17T00:04:06.615Z,13.37
2019-02-17T00:06:35.507Z,16.83
2019-02-17T00:09:07.675Z,12.13
2019-02-17T00:11:36.565Z,14.17
2019-02-17T00:14:05.458Z,15.27
2019-02-17T00:16:34.349Z,18.40
2019-02-17T00:19:03.217Z,17.83
2019-02-17T00:21:32.132Z,16.47
2019-02-17T00:24:01.022Z,17.33
2019-02-17T00:26:29.915Z,15.00
2019-02-17T00:28:59.752Z,18.07
2019-02-17T00:31:29.027Z,18.07
2019-02-17T00:33:57.895Z,20.93
2019-02-17T00:36:26.912Z,17.33
2019-02-17T00:38:55.803Z,15.50
2019-02-17T00:41:25.786Z,17.33
2019-02-17T00:43:54.711Z,17.00
2019-02-17T00:46:23.603Z,17.00
2019-02-17T00:48:52.495Z,16.60
2019-02-17T00:51:21.386Z,17.27
2019-02-17T00:53:50.278Z,15.80
2019-02-17T00:56:19.168Z,15.13
2019-02-17T00:58:48.060Z,16.30
2019-02-17T01:01:16.956Z,13.80
2019-02-17T01:03:45.819Z,13.17
2019-02-17T01:06:14.839Z,15.63
2019-02-17T01:08:43.729Z,16.50
2019-02-17T01:11:12.620Z,16.83
2019-02-17T01:13:41.615Z,16.23
2019-02-17T01:16:10.506Z,15.73
2019-02-17T01:18:39.371Z,14.80
2019-02-17T01:21:08.288Z,20.30
2019-02-17T01:23:37.280Z,18.10
2019-02-17T01:26:06.173Z,15.70
2019-02-17T01:28:35.062Z,15.13
2019-02-17T01:31:03.954Z,17.30
2019-02-17T01:33:33.964Z,15.30
2019-02-17T01:36:02.866Z,17.63
2019-02-17T01:38:31.730Z,16.60
2019-02-17T01:41:00.646Z,14.47
2019-02-17T01:43:29.539Z,16.10
2019-02-17T01:45:58.427Z,14.63
2019-02-17T01:48:27.320Z,13.00
2019-02-17T01:50:56.215Z,15.23
2019-02-17T01:53:25.101Z,13.40
2019-02-17T01:55:55.078Z,12.47
2019-02-17T01:58:24.009Z,15.23
2019-02-17T02:00:52.900Z,15.33
2019-02-17T02:03:21.791Z,14.87
2019-02-17T02:05:50.683Z,17.07
2019-02-17T02:08:19.551Z,16.53
2019-02-17T02:10:48.440Z,13.20
2019-02-17T02:13:17.357Z,15.00
2019-02-17T02:15:46.247Z,17.50
2019-02-17T02:18:15.138Z,14.63
2019-02-17T02:20:44.029Z,14.60
2019-02-17T02:23:12.920Z,15.43
2019-02-17T02:25:41.774Z,18.23
2019-02-17T02:28:10.643Z,15.87
2019-02-17T02:30:39.975Z,17.63
2019-02-17T02:33:08.947Z,16.70
2019-02-17T02:35:37.815Z,18.37
2019-02-17T02:38:06.642Z,16.53
2019-02-17T02:40:35.516Z,15.17
2019-02-17T02:43:04.382Z,15.10
2019-02-17T02:45:33.220Z,17.10
2019-02-17T02:48:02.086Z,13.63
2019-02-17T02:50:30.959Z,16.87
2019-02-17T02:52:59.798Z,16.80
2019-02-17T02:55:28.666Z,19.33
2019-02-17T02:57:57.537Z,17.63
2019-02-17T03:00:26.368Z,17.03
2019-02-17T03:02:55.242Z,16.30
2019-02-17T03:05:24.103Z,17.13
2019-02-17T03:07:52.926Z,14.90
2019-02-17T03:10:21.798Z,14.37
2019-02-17T03:12:50.663Z,13.93
2019-02-17T03:15:19.499Z,15.63
2019-02-17T03:17:48.362Z,14.43
2019-02-17T03:20:17.231Z,13.27
2019-02-17T03:22:46.073Z,13.87
2019-02-17T03:25:14.931Z,13.07
2019-02-17T03:27:43.804Z,14.63
2019-02-17T03:30:12.631Z,15.83
2019-02-17T03:32:41.499Z,16.37
2019-02-17T03:35:10.375Z,15.33
2019-02-17T03:37:39.202Z,15.47
2019-02-17T03:40:09.362Z,15.47
2019-02-17T03:42:38.238Z,13.50
2019-02-17T03:45:09.672Z,15.83
2019-02-17T03:47:38.540Z,13.20
2019-02-17T03:50:07.902Z,13.07
2019-02-17T03:52:36.841Z,14.30
2019-02-17T03:55:05.922Z,15.07
2019-02-17T03:57:34.789Z,12.13
2019-02-17T04:00:16.086Z,14.53
2019-02-17T04:02:35.015Z,16.90
2019-02-17T04:05:04.334Z,18.73
2019-02-17T04:07:33.225Z,14.57
2019-02-17T04:10:02.117Z,14.40
2019-02-17T04:12:31.009Z,16.13
2019-02-17T04:14:59.870Z,13.17
2019-02-17T04:17:28.997Z,14.03
2019-02-17T04:19:57.989Z,13.93
2019-02-17T04:22:26.858Z,12.83
2019-02-17T04:24:55.771Z,12.83
2019-02-17T04:27:24.665Z,15.17
2019-02-17T04:29:53.551Z,13.87
2019-02-17T04:32:22.419Z,14.20
2019-02-17T04:34:51.313Z,17.73
2019-02-17T04:37:20.226Z,15.07
2019-02-17T04:39:49.120Z,14.37
2019-02-17T04:42:18.010Z,13.90
2019-02-17T04:44:46.900Z,14.53
2019-02-17T04:47:15.767Z,17.50
2019-02-17T04:49:44.659Z,13.07
2019-02-17T04:52:13.573Z,13.70
2019-02-17T04:54:42.465Z,15.77
2019-02-17T04:57:11.356Z,15.73
2019-02-17T04:59:40.247Z,15.67
2019-02-17T05:02:09.139Z,16.87
2019-02-17T05:04:38.030Z,14.57
2019-02-17T05:07:06.920Z,16.20
2019-02-17T05:09:36.902Z,13.13
2019-02-17T05:12:05.932Z,15.10
2019-02-17T05:14:34.801Z,13.90
2019-02-17T05:17:03.713Z,17.63
2019-02-17T05:19:32.578Z,15.17
2019-02-17T05:22:01.504Z,14.43
2019-02-17T05:24:30.387Z,16.73
2019-02-17T05:26:59.280Z,14.13
2019-02-17T05:29:28.171Z,15.27
2019-02-17T05:31:57.062Z,14.03
2019-02-17T05:34:25.956Z,13.83
2019-02-17T05:36:54.844Z,15.90
2019-02-17T05:39:25.493Z,14.03
2019-02-17T05:41:54.469Z,16.93
2019-02-17T05:44:23.361Z,14.80
2019-02-17T05:46:52.253Z,14.87
2019-02-17T05:49:21.142Z,13.10
2019-02-17T05:51:50.008Z,13.40
2019-02-17T05:54:18.926Z,13.87
2019-02-17T05:56:47.817Z,16.63
2019-02-17T06:02:45.606Z,11.93
2019-02-17T06:05:14.702Z,11.67
2019-02-17T06:07:43.597Z,13.50
2019-02-17T06:10:12.485Z,16.30
2019-02-17T06:12:41.478Z,12.40
2019-02-17T06:15:10.370Z,13.60
2019-02-17T06:17:41.208Z,12.87
2019-02-17T06:20:11.402Z,14.90
2019-02-17T06:22:40.321Z,17.37
2019-02-17T06:25:09.215Z,14.87
2019-02-17T06:27:38.079Z,16.83
2019-02-17T06:30:09.059Z,14.97
2019-02-17T06:32:38.137Z,15.50
2019-02-17T06:35:07.845Z,14.73
2019-02-17T06:37:36.742Z,13.83
2019-02-17T06:40:07.360Z,13.40
2019-02-17T06:42:36.262Z,13.80
2019-02-17T06:45:06.908Z,14.60
2019-02-17T06:47:35.990Z,14.60
2019-02-17T06:50:06.281Z,12.47
2019-02-17T06:52:35.206Z,13.20
2019-02-17T06:55:15.263Z,13.30
2019-02-17T06:57:44.252Z,14.50
2019-02-17T07:00:14.756Z,12.80
2019-02-17T07:02:43.673Z,14.67
2019-02-17T07:05:30.486Z,16.93
2019-02-17T07:07:59.478Z,17.30
2019-02-17T07:10:28.471Z,13.10
2019-02-17T07:12:57.364Z,17.70
2019-02-17T07:15:26.361Z,14.13
2019-02-17T07:17:55.452Z,13.83
2019-02-17T07:20:24.355Z,13.73
2019-02-17T07:22:53.234Z,13.80
2019-02-17T07:28:51.511Z,16.37
2019-02-17T07:31:22.503Z,15.27
2019-02-17T07:33:50.935Z,16.70
2019-02-17T07:36:21.958Z,17.27
2019-02-17T07:38:50.481Z,18.40
2019-02-17T07:41:19.372Z,19.80
2019-02-17T07:43:48.238Z,21.63
2019-02-17T07:46:17.259Z,21.80
2019-02-17T07:48:46.151Z,21.73
2019-02-17T07:51:15.245Z,19.00
2019-02-17T07:53:44.345Z,23.07
2019-02-17T07:56:13.335Z,23.43
2019-02-17T07:58:42.326Z,23.83
2019-02-17T08:01:11.321Z,22.47
2019-02-17T08:03:40.211Z,25.00
2019-02-17T08:06:09.208Z,20.33
2019-02-17T08:08:38.097Z,22.50
2019-02-17T08:11:06.988Z,20.07
2019-02-17T08:13:35.826Z,19.90
2019-02-17T08:16:44.604Z,17.73
2019-02-17T08:19:13.471Z,18.37
2019-02-17T08:21:42.387Z,22.97
2019-02-17T08:24:11.485Z,20.63
2019-02-17T08:26:40.376Z,17.27
2019-02-17T08:29:09.367Z,18.07
2019-02-17T08:31:38.463Z,16.43
2019-02-17T08:34:07.456Z,17.83
2019-02-17T08:36:36.452Z,14.47
2019-02-17T08:39:06.342Z,17.77
2019-02-17T08:41:35.439Z,17.10
2019-02-17T08:44:04.559Z,18.27
2019-02-17T08:46:33.450Z,17.40
2019-02-17T08:49:02.443Z,17.97
2019-02-17T08:51:31.655Z,16.87
2019-02-17T08:54:00.533Z,16.33
2019-02-17T08:56:29.503Z,15.60
2019-02-17T08:58:58.418Z,16.27
2019-02-17T09:01:27.376Z,16.23
2019-02-17T09:03:56.404Z,16.97
2019-02-17T09:06:27.214Z,16.27
2019-02-17T09:08:55.765Z,16.20
2019-02-17T09:11:24.648Z,17.73
2019-02-17T09:13:53.532Z,16.30
2019-02-17T09:16:22.380Z,15.23
2019-02-17T09:18:51.271Z,18.00
2019-02-17T09:21:20.159Z,17.53
2019-02-17T09:23:49.003Z,18.10
2019-02-17T09:26:17.904Z,17.93
2019-02-17T09:28:46.796Z,16.37
2019-02-17T09:31:15.651Z,18.27
2019-02-17T09:33:44.535Z,15.87
2019-02-17T09:36:13.416Z,16.43
2019-02-17T09:38:42.283Z,16.83
2019-02-17T09:41:11.155Z,15.53
2019-02-17T09:43:40.041Z,15.73
2019-02-17T09:46:08.968Z,16.47
2019-02-17T09:48:38.085Z,16.73
2019-02-17T09:51:07.079Z,16.27
2019-02-17T09:53:35.946Z,16.50
2019-02-17T09:56:05.064Z,16.20
2019-02-17T09:58:35.004Z,16.20
2019-02-17T10:01:04.077Z,13.87
2019-02-17T10:03:32.968Z,13.50
2019-02-17T10:06:01.968Z,14.30
2019-02-17T10:08:30.853Z,16.90
2019-02-17T10:10:59.745Z,15.83
2019-02-17T10:13:28.738Z,13.77
2019-02-17T10:15:57.612Z,15.60
2019-02-17T10:18:26.621Z,13.47
2019-02-17T10:20:55.591Z,14.73
2019-02-17T10:23:24.485Z,14.33
2019-02-17T10:25:53.400Z,13.80
2019-02-17T10:28:22.291Z,15.57
2019-02-17T10:30:51.181Z,14.13
2019-02-17T10:33:20.174Z,15.43
2019-02-17T10:35:49.374Z,14.17
2019-02-17T10:38:18.265Z,15.07
2019-02-17T10:40:47.338Z,12.50
2019-02-17T10:43:16.252Z,13.03
2019-02-17T10:45:45.143Z,13.77
2019-02-17T10:48:14.033Z,13.17
2019-02-17T10:50:42.925Z,12.57
2019-02-17T10:53:11.820Z,15.27
2019-02-17T10:55:40.810Z,14.17
2019-02-17T10:58:09.804Z,14.70
2019-02-17T11:00:38.679Z,14.43
2019-02-17T11:03:08.610Z,12.50
2019-02-17T11:05:37.706Z,14.77
2019-02-17T11:08:06.590Z,13.93
2019-02-17T11:10:35.462Z,12.63
2019-02-17T11:13:04.365Z,13.03
2019-02-17T11:15:33.316Z,12.37
2019-02-17T11:18:02.195Z,12.47
2019-02-17T11:20:31.071Z,14.53
2019-02-17T11:22:59.906Z,13.37
2019-02-17T11:25:28.781Z,14.67
2019-02-17T11:27:57.647Z,13.70
2019-02-17T11:30:26.483Z,13.00
2019-02-17T11:32:58.238Z,13.83
2019-02-17T11:35:25.870Z,13.17
2019-02-17T11:37:54.704Z,14.17
2019-02-17T11:40:23.574Z,13.13
2019-02-17T11:42:52.447Z,12.67
2019-02-17T11:45:21.279Z,11.43
2019-02-17T11:47:50.139Z,13.00
2019-02-17T11:50:19.025Z,11.83
2019-02-17T11:52:48.024Z,12.13
2019-02-17T11:55:17.094Z,12.67
2019-02-17T11:57:45.909Z,12.23
2019-02-17T12:00:17.518Z,14.13
2019-02-17T12:02:46.399Z,14.13
2019-02-17T12:05:15.272Z,11.13
2019-02-17T12:07:44.098Z,15.77
2019-02-17T12:10:13.076Z,12.73
2019-02-17T12:12:41.950Z,13.30
2019-02-17T12:15:12.907Z,11.83
2019-02-17T12:17:41.754Z,13.70
2019-02-17T12:20:26.998Z,12.27
2019-02-17T12:22:58.253Z,12.17
2019-02-17T12:25:28.691Z,13.10
2019-02-17T12:27:59.100Z,12.60
2019-02-17T12:30:27.966Z,12.43
2019-02-17T12:32:56.840Z,12.17
2019-02-17T12:35:25.668Z,10.37
2019-02-17T12:37:54.535Z,13.70
2019-02-17T12:40:23.411Z,12.70
2019-02-17T12:42:52.247Z,12.50
2019-02-17T12:45:21.115Z,11.77
2019-02-17T12:47:57.519Z,13.77
2019-02-17T12:50:20.470Z,12.33
2019-02-17T12:52:49.330Z,11.17
2019-02-17T12:55:18.207Z,12.13
2019-02-17T12:57:47.034Z,11.50
2019-02-17T13:00:17.711Z,12.83
2019-02-17T13:02:46.579Z,13.17
2019-02-17T13:05:15.411Z,13.03
2019-02-17T13:07:44.316Z,13.47
2019-02-17T13:10:13.376Z,13.03
2019-02-17T13:12:42.200Z,13.80
2019-02-17T13:15:12.877Z,11.97
2019-02-17T13:17:41.746Z,14.30
2019-02-17T13:20:12.474Z,11.47
2019-02-17T13:22:41.342Z,11.80
2019-02-17T13:25:13.181Z,12.17
2019-02-17T13:27:44.654Z,10.03
2019-02-17T13:30:22.052Z,12.20
2019-02-17T13:32:50.903Z,11.93
2019-02-17T13:35:19.779Z,14.03
2019-02-17T13:37:48.623Z,12.70
2019-02-17T13:40:17.501Z,13.23
2019-02-17T13:42:46.398Z,13.63
2019-02-17T13:45:16.326Z,12.63
2019-02-17T13:47:45.202Z,12.17
2019-02-17T13:50:15.379Z,14.17
2019-02-17T13:52:44.212Z,13.37
2019-02-17T13:55:13.075Z,12.77
2019-02-17T13:57:42.166Z,12.53
2019-02-17T14:00:13.887Z,13.87
2019-02-17T14:02:42.762Z,13.70
2019-02-17T14:05:11.723Z,11.37
2019-02-17T14:07:40.565Z,14.60
2019-02-17T14:10:11.336Z,14.10
2019-02-17T14:12:40.324Z,16.00
2019-02-17T14:15:17.462Z,14.00
2019-02-17T14:17:46.349Z,14.07
2019-02-17T14:20:15.167Z,12.67
2019-02-17T14:22:44.047Z,14.37
2019-02-17T14:25:13.027Z,11.73
2019-02-17T14:27:41.859Z,11.60
2019-02-17T14:30:12.827Z,12.80
2019-02-17T14:32:41.705Z,14.60
2019-02-17T14:35:10.539Z,15.50
2019-02-17T14:37:39.445Z,12.53
2019-02-17T14:40:12.871Z,12.80
2019-02-17T14:42:41.764Z,14.47
2019-02-17T14:45:17.316Z,11.93
2019-02-17T14:47:46.186Z,13.17
2019-02-17T14:50:15.068Z,11.80
2019-02-17T14:52:43.891Z,12.37
2019-02-17T14:55:13.264Z,11.47
2019-02-17T14:57:42.139Z,14.50
2019-02-17T15:00:15.338Z,12.40
2019-02-17T15:02:44.196Z,12.33
2019-02-17T15:05:13.126Z,14.30
2019-02-17T15:07:41.994Z,12.30
2019-02-17T15:10:12.164Z,12.57
2019-02-17T15:12:40.994Z,11.43
2019-02-17T15:15:11.672Z,13.60
2019-02-17T15:17:40.545Z,12.90
2019-02-17T15:20:17.960Z,12.23
2019-02-17T15:22:46.834Z,11.93
2019-02-17T15:25:15.753Z,12.60
2019-02-17T15:27:45.489Z,10.43
2019-02-17T15:30:17.779Z,12.63
2019-02-17T15:32:46.451Z,10.87
2019-02-17T15:35:15.317Z,12.43
2019-02-17T15:37:44.285Z,12.13
2019-02-17T15:40:14.425Z,9.90
2019-02-17T15:42:43.548Z,11.97
2019-02-17T15:45:13.783Z,12.90
2019-02-17T15:47:42.606Z,10.73
2019-02-17T15:50:12.785Z,9.83
2019-02-17T15:52:41.652Z,11.97
2019-02-17T15:55:12.551Z,12.07
2019-02-17T15:57:41.420Z,11.43
2019-02-17T16:00:17.947Z,10.93
2019-02-17T16:02:46.819Z,11.47
2019-02-17T16:05:15.719Z,10.00
2019-02-17T16:07:44.510Z,8.70
2019-02-17T16:10:15.556Z,9.80
2019-02-17T16:12:44.424Z,9.63
2019-02-17T16:15:24.199Z,8.67
2019-02-17T16:17:53.085Z,7.83
2019-02-17T16:20:21.910Z,8.33
2019-02-17T16:22:50.782Z,7.73
2019-02-17T16:25:19.650Z,8.40
2019-02-17T16:27:48.499Z,6.93
2019-02-17T16:30:21.860Z,8.17
2019-02-17T16:32:50.740Z,9.80
2019-02-17T16:35:19.604Z,7.33
2019-02-17T16:37:48.461Z,5.67
2019-02-17T16:40:18.336Z,7.50
2019-02-17T16:42:47.254Z,6.17
2019-02-17T16:45:16.141Z,9.63
2019-02-17T16:47:51.928Z,8.07
2019-02-17T16:50:25.439Z,7.03
2019-02-17T16:52:54.303Z,6.33
2019-02-17T16:55:23.182Z,7.40
2019-02-17T16:57:52.040Z,6.20
2019-02-17T17:00:25.211Z,5.60
2019-02-17T17:02:57.454Z,5.30
2019-02-17T17:05:26.393Z,4.97
2019-02-17T17:07:58.510Z,5.80
2019-02-17T17:10:27.320Z,6.77
2019-02-17T17:12:56.415Z,9.43
2019-02-17T17:15:25.326Z,6.00
2019-02-17T17:17:54.153Z,6.33
2019-02-17T17:20:34.283Z,4.37
2019-02-17T17:23:05.160Z,5.67
2019-02-17T17:25:33.650Z,6.03
2019-02-17T17:28:02.724Z,6.17
2019-02-17T17:30:31.775Z,5.97
2019-02-17T17:33:04.754Z,4.37
2019-02-17T17:35:36.467Z,4.70
2019-02-17T17:38:05.336Z,6.80
2019-02-17T17:40:36.008Z,4.30
2019-02-17T17:43:21.071Z,4.67
2019-02-17T17:46:14.175Z,3.93
2019-02-17T17:48:43.598Z,6.57
2019-02-17T17:51:18.574Z,5.00
2019-02-17T17:53:47.439Z,4.33
2019-02-17T17:56:16.259Z,4.73
2019-02-17T17:58:45.175Z,4.37
2019-02-17T18:01:14.035Z,5.53
2019-02-17T18:03:42.859Z,4.00
2019-02-17T18:06:11.732Z,4.93
2019-02-17T18:08:40.603Z,3.83
2019-02-17T18:11:09.435Z,3.80
2019-02-17T18:13:38.295Z,3.63
2019-02-17T18:16:07.162Z,4.70
2019-02-17T18:18:35.988Z,3.57
2019-02-17T18:21:04.853Z,4.73
2019-02-17T18:23:33.705Z,4.07
2019-02-17T18:26:02.530Z,5.47
2019-02-17T18:28:31.403Z,4.33
2019-02-17T18:31:00.264Z,5.87
2019-02-17T18:33:29.093Z,3.60
2019-02-17T18:35:57.967Z,3.87
2019-02-17T18:38:26.856Z,3.87
2019-02-17T18:40:55.658Z,3.83
2019-02-17T18:43:24.523Z,4.43
2019-02-17T18:45:53.388Z,4.17
2019-02-17T18:48:22.206Z,5.07
2019-02-17T18:50:58.918Z,5.00
2019-02-17T18:53:21.596Z,3.43
2019-02-17T18:55:50.419Z,4.33
2019-02-17T18:58:19.292Z,4.33
2019-02-17T19:00:51.001Z,4.07
2019-02-17T19:03:19.823Z,5.13
2019-02-17T19:05:48.685Z,4.13
2019-02-17T19:08:17.546Z,4.63
2019-02-17T19:10:46.371Z,4.70
2019-02-17T19:13:15.235Z,4.73
2019-02-17T19:15:44.096Z,5.73
2019-02-17T19:18:12.935Z,4.83
2019-02-17T19:20:41.805Z,4.50
2019-02-17T19:23:10.666Z,4.37
2019-02-17T19:25:39.508Z,4.70
2019-02-17T19:28:08.462Z,5.20
2019-02-17T19:30:37.331Z,3.43
2019-02-17T19:33:06.156Z,4.03
2019-02-17T19:35:41.460Z,4.27
2019-02-17T19:38:05.527Z,6.73
2019-02-17T19:40:34.356Z,5.20
2019-02-17T19:43:03.645Z,6.07
2019-02-17T19:45:32.611Z,5.03
2019-02-17T19:48:01.447Z,17.87
2019-02-17T19:50:30.352Z,5.83
2019-02-17T19:52:59.195Z,5.90
2019-02-17T19:55:28.026Z,5.50
2019-02-17T19:57:56.887Z,5.07
2019-02-17T20:00:25.754Z,6.00
2019-02-17T20:03:07.818Z,5.20
2019-02-17T20:05:38.259Z,5.53
2019-02-17T20:08:07.084Z,5.57
2019-02-17T20:10:36.069Z,4.93
2019-02-17T20:13:04.977Z,5.00
2019-02-17T20:15:34.962Z,4.73
2019-02-17T20:18:03.919Z,4.20
2019-02-17T20:20:32.775Z,4.87
2019-02-17T20:23:01.819Z,4.27
2019-02-17T20:25:30.690Z,5.70
2019-02-17T20:27:59.580Z,6.03
2019-02-17T20:30:28.419Z,4.27
2019-02-17T20:32:57.269Z,5.93
2019-02-17T20:35:26.143Z,4.87
2019-02-17T20:37:54.986Z,7.23
2019-02-17T20:40:23.845Z,6.27
2019-02-17T20:42:52.784Z,5.77
2019-02-17T20:45:21.703Z,5.23
2019-02-17T20:47:51.058Z,5.60
2019-02-17T20:50:20.287Z,4.30
2019-02-17T20:52:49.151Z,4.00
2019-02-17T20:55:18.017Z,4.67
2019-02-17T20:57:47.753Z,4.10
2019-02-17T21:00:18.822Z,4.40
2019-02-17T21:02:47.655Z,4.83
2019-02-17T21:05:16.478Z,4.77
2019-02-17T21:07:45.358Z,5.93
2019-02-17T21:10:15.775Z,5.23
2019-02-17T21:12:44.608Z,5.17
2019-02-17T21:15:18.608Z,4.83
2019-02-17T21:17:47.477Z,4.73
2019-02-17T21:20:17.824Z,5.73
2019-02-17T21:22:46.695Z,6.40
2019-02-17T21:25:15.656Z,6.07
2019-02-17T21:27:44.522Z,4.97
2019-02-17T21:30:15.488Z,6.37
2019-02-17T21:32:44.355Z,5.93
2019-02-17T21:35:14.592Z,5.13
2019-02-17T21:37:43.454Z,6.70
2019-02-17T21:40:13.018Z,5.03
2019-02-17T21:42:41.860Z,8.73
2019-02-17T21:45:12.232Z,5.30
2019-02-17T21:47:41.331Z,7.20
2019-02-17T21:50:16.578Z,6.23
2019-02-17T21:52:45.463Z,5.33
2019-02-17T21:55:15.264Z,4.90
2019-02-17T21:57:44.145Z,7.10
2019-02-17T22:00:16.895Z,6.83
2019-02-17T22:02:45.747Z,6.83
2019-02-17T22:05:14.849Z,6.57
2019-02-17T22:07:44.123Z,6.50
2019-02-17T22:10:20.158Z,5.90
2019-02-17T22:12:51.122Z,8.47
2019-02-17T22:15:21.245Z,7.33
2019-02-17T22:17:50.087Z,8.27
2019-02-17T22:20:18.959Z,7.27
2019-02-17T22:22:47.787Z,5.90
2019-02-17T22:25:16.655Z,6.00
2019-02-17T22:27:45.536Z,8.70
2019-02-17T22:30:15.456Z,6.63
2019-02-17T22:32:44.337Z,8.27
2019-02-17T22:35:13.206Z,8.37
2019-02-17T22:37:42.043Z,7.27
2019-02-17T22:40:12.295Z,9.67
2019-02-17T22:42:41.160Z,6.00
2019-02-17T22:45:11.498Z,7.33
2019-02-17T22:47:40.368Z,7.73
2019-02-17T22:50:14.579Z,7.10
2019-02-17T22:52:44.654Z,10.23
2019-02-17T22:55:14.318Z,9.23
2019-02-17T22:57:43.139Z,7.27
2019-02-17T23:00:28.590Z,7.93
2019-02-17T23:02:57.464Z,8.27
2019-02-17T23:05:26.299Z,9.60
2019-02-17T23:07:55.158Z,8.23
2019-02-17T23:10:24.043Z,7.53
2019-02-17T23:12:52.867Z,9.30
2019-02-17T23:15:21.732Z,6.87
2019-02-17T23:17:50.602Z,8.13
2019-02-17T23:20:19.431Z,8.10
2019-02-17T23:22:48.298Z,6.50
2019-02-17T23:25:17.473Z,6.13
2019-02-17T23:27:47.065Z,6.67
2019-02-17T23:30:15.979Z,6.57
2019-02-17T23:32:44.869Z,5.90
2019-02-17T23:35:13.731Z,8.27
2019-02-17T23:37:42.835Z,6.97
2019-02-17T23:40:12.699Z,7.00
2019-02-17T23:42:41.560Z,7.03
2019-02-17T23:45:14.120Z,7.27
2019-02-17T23:47:43.003Z,7.80
2019-02-17T23:50:13.281Z,9.23
2019-02-17T23:52:42.787Z,7.83
2019-02-17T23:55:12.262Z,8.00
2019-02-17T23:57:41.759Z,7.83
